createdAt,value
2022-12-25T00:04:36.683Z,9.45
2022-12-25T00:09:38.557Z,9.39
2022-12-25T00:14:40.543Z,9.47
2022-12-25T00:19:42.606Z,9.53
2022-12-25T00:24:44.462Z,9.51
2022-12-25T00:29:46.364Z,9.44
2022-12-25T00:34:48.244Z,9.46
2022-12-25T00:39:50.163Z,9.42
2022-12-25T00:44:52.150Z,9.49
2022-12-25T00:49:55.107Z,9.67
2022-12-25T00:54:57.005Z,9.75
2022-12-25T00:59:59.059Z,9.74
2022-12-25T01:05:00.943Z,9.75
2022-12-25T01:10:21.770Z,9.74
2022-12-25T01:15:23.696Z,9.69
2022-12-25T01:20:25.586Z,9.48
2022-12-25T01:25:27.522Z,9.70
2022-12-25T01:30:29.463Z,9.65
2022-12-25T01:35:31.317Z,9.67
2022-12-25T01:40:34.814Z,9.47
2022-12-25T01:45:44.638Z,9.57
2022-12-25T01:50:53.627Z,9.68
2022-12-25T01:56:03.933Z,9.81
2022-12-25T02:01:06.081Z,9.39
2022-12-25T02:06:08.376Z,9.45
2022-12-25T02:11:30.165Z,9.41
2022-12-25T02:16:57.240Z,9.39
2022-12-25T02:22:21.887Z,9.56
2022-12-25T02:27:48.391Z,9.60
2022-12-25T02:33:14.112Z,9.34
2022-12-25T02:38:29.999Z,9.31
2022-12-25T02:43:54.966Z,9.45
2022-12-25T02:49:19.215Z,9.37
2022-12-25T02:54:45.951Z,9.30
2022-12-25T03:00:09.226Z,9.49
2022-12-25T03:05:34.701Z,9.56
2022-12-25T03:10:58.777Z,9.35
2022-12-25T03:16:19.209Z,9.59
2022-12-25T03:21:39.934Z,9.47
2022-12-25T03:26:54.895Z,9.51
2022-12-25T03:32:09.735Z,9.39
2022-12-25T03:37:11.587Z,9.32
2022-12-25T03:42:54.389Z,9.26
2022-12-25T03:48:15.645Z,9.45
2022-12-25T03:53:46.161Z,9.46
2022-12-25T03:59:16.529Z,9.64
2022-12-25T04:04:40.063Z,9.48
2022-12-25T04:10:00.896Z,9.46
2022-12-25T04:15:21.466Z,9.53
2022-12-25T04:20:41.737Z,9.42
2022-12-25T04:26:02.109Z,9.46
2022-12-25T04:31:22.588Z,9.42
2022-12-25T04:36:24.529Z,9.42
2022-12-25T04:41:26.500Z,9.37
2022-12-25T04:46:28.536Z,9.49
2022-12-25T04:51:30.456Z,9.07
2022-12-25T04:56:33.149Z,9.06
2022-12-25T05:01:35.403Z,9.18
2022-12-25T05:06:37.368Z,9.38
2022-12-25T05:11:39.472Z,9.27
2022-12-25T05:16:41.337Z,8.94
2022-12-25T05:21:43.239Z,9.22
2022-12-25T05:26:45.175Z,9.10
2022-12-25T05:31:47.134Z,9.02
2022-12-25T05:36:49.061Z,9.03
2022-12-25T05:41:51.005Z,9.20
2022-12-25T05:46:52.982Z,9.09
2022-12-25T05:51:54.960Z,9.21
2022-12-25T05:56:57.159Z,9.22
2022-12-25T06:01:59.817Z,9.44
2022-12-25T06:07:01.678Z,9.35
2022-12-25T06:12:04.302Z,9.15
2022-12-25T06:17:06.298Z,9.11
2022-12-25T06:22:08.219Z,9.17
2022-12-25T06:27:10.206Z,9.18
2022-12-25T06:32:12.066Z,9.20
2022-12-25T06:37:13.938Z,9.23
2022-12-25T06:42:15.879Z,9.32
2022-12-25T06:47:17.688Z,9.31
2022-12-25T06:52:19.577Z,9.44
2022-12-25T06:57:21.402Z,9.55
2022-12-25T07:02:24.770Z,9.60
2022-12-25T07:07:26.794Z,9.63
2022-12-25T07:12:28.983Z,9.76
2022-12-25T07:17:30.790Z,9.85
2022-12-25T07:22:32.697Z,9.83
2022-12-25T07:27:34.523Z,9.85
2022-12-25T07:32:36.790Z,9.84
2022-12-25T07:37:38.664Z,10.07
2022-12-25T07:42:40.550Z,10.19
2022-12-25T07:47:43.673Z,10.23
2022-12-25T07:52:47.029Z,10.33
2022-12-25T07:57:49.031Z,10.48
2022-12-25T08:02:51.131Z,10.67
2022-12-25T08:07:57.940Z,10.48
2022-12-25T08:13:00.503Z,10.71
2022-12-25T08:18:02.391Z,10.70
2022-12-25T08:23:04.718Z,10.67
2022-12-25T08:28:06.648Z,10.70
2022-12-25T08:33:08.535Z,10.81
2022-12-25T08:38:10.378Z,10.77
2022-12-25T08:43:12.289Z,10.70
2022-12-25T08:48:14.122Z,10.72
2022-12-25T08:53:17.297Z,10.60
2022-12-25T08:58:19.729Z,10.34
2022-12-25T09:03:22.462Z,10.60
2022-12-25T09:08:24.442Z,10.31
2022-12-25T09:13:26.559Z,10.67
2022-12-25T09:18:28.452Z,10.95
2022-12-25T09:23:31.164Z,10.87
2022-12-25T09:28:33.742Z,10.89
2022-12-25T09:33:35.734Z,10.75
2022-12-25T09:38:37.720Z,10.51
2022-12-25T09:43:46.281Z,10.16
2022-12-25T09:49:07.441Z,10.14
2022-12-25T09:54:37.660Z,10.49
2022-12-25T09:59:40.179Z,10.90
2022-12-25T10:04:48.866Z,10.72
2022-12-25T10:09:50.687Z,11.02
2022-12-25T10:15:07.758Z,10.94
2022-12-25T10:20:25.820Z,10.97
2022-12-25T10:25:27.726Z,11.22
2022-12-25T10:30:31.396Z,11.36
2022-12-25T10:35:33.148Z,11.17
2022-12-25T10:40:53.351Z,11.32
2022-12-25T10:45:55.392Z,11.08
2022-12-25T10:50:57.381Z,11.02
2022-12-25T10:56:02.796Z,10.84
2022-12-25T11:01:06.995Z,10.88
2022-12-25T11:06:22.866Z,11.36
2022-12-25T11:11:26.661Z,11.12
2022-12-25T11:16:40.187Z,11.16
2022-12-25T11:21:52.559Z,11.01
2022-12-25T11:26:57.276Z,11.31
2022-12-25T11:32:02.464Z,11.33
2022-12-25T11:37:12.299Z,11.27
2022-12-25T11:42:32.385Z,11.23
2022-12-25T11:47:49.014Z,11.03
2022-12-25T11:52:52.583Z,11.48
2022-12-25T11:58:12.440Z,11.59
2022-12-25T12:03:27.185Z,11.88
2022-12-25T12:08:31.145Z,11.76
2022-12-25T12:13:44.038Z,12.05
2022-12-25T12:18:50.387Z,12.11
2022-12-25T12:24:01.799Z,11.96
2022-12-25T12:29:06.437Z,11.82
2022-12-25T12:34:24.351Z,11.89
2022-12-25T12:39:31.833Z,11.85
2022-12-25T12:44:34.742Z,11.64
2022-12-25T12:49:36.657Z,11.70
2022-12-25T12:54:58.722Z,11.64
2022-12-25T13:00:08.684Z,11.67
2022-12-25T13:05:16.136Z,11.58
2022-12-25T13:10:25.879Z,11.64
2022-12-25T13:15:32.607Z,11.53
2022-12-25T13:20:41.611Z,11.26
2022-12-25T13:25:52.780Z,11.31
2022-12-25T13:31:05.987Z,11.33
2022-12-25T13:36:13.346Z,11.53
2022-12-25T13:41:39.249Z,11.53
2022-12-25T13:46:41.200Z,11.30
2022-12-25T13:51:43.894Z,11.28
2022-12-25T13:56:54.617Z,11.25
2022-12-25T14:01:57.829Z,11.33
2022-12-25T14:07:09.839Z,11.25
2022-12-25T14:12:18.912Z,11.40
2022-12-25T14:17:22.661Z,11.29
2022-12-25T14:22:26.044Z,11.36
2022-12-25T14:27:32.282Z,11.31
2022-12-25T14:32:40.787Z,11.08
2022-12-25T14:37:43.015Z,10.72
2022-12-25T14:43:01.133Z,10.66
2022-12-25T14:48:22.884Z,10.89
2022-12-25T14:53:35.499Z,10.77
2022-12-25T14:58:43.303Z,10.90
2022-12-25T15:03:45.220Z,10.81
2022-12-25T15:09:13.512Z,10.97
2022-12-25T15:14:15.435Z,10.55
2022-12-25T15:19:29.356Z,10.67
2022-12-25T15:24:35.575Z,10.71
2022-12-25T15:30:08.727Z,10.87
2022-12-25T15:34:59.628Z,10.48
2022-12-25T15:40:02.339Z,10.38
2022-12-25T15:45:04.831Z,10.41
2022-12-25T15:50:07.356Z,10.45
2022-12-25T15:55:09.875Z,10.64
2022-12-25T16:00:22.637Z,10.78
2022-12-25T16:05:24.585Z,10.62
2022-12-25T16:10:26.513Z,10.71
2022-12-25T16:15:28.415Z,10.85
2022-12-25T16:20:30.355Z,10.59
2022-12-25T16:25:32.567Z,10.60
2022-12-25T16:30:34.751Z,10.51
2022-12-25T16:35:37.048Z,10.53
2022-12-25T16:40:38.998Z,10.60
2022-12-25T16:45:40.934Z,10.72
2022-12-25T16:50:42.819Z,10.52
2022-12-25T16:55:44.713Z,10.62
2022-12-25T17:00:49.522Z,10.50
2022-12-25T17:05:51.673Z,10.67
2022-12-25T17:10:53.697Z,10.53
2022-12-25T17:15:55.799Z,10.46
2022-12-25T17:20:57.689Z,10.57
2022-12-25T17:26:03.605Z,10.48
2022-12-25T17:31:07.886Z,10.63
2022-12-25T17:36:17.279Z,10.41
2022-12-25T17:41:20.222Z,10.41
2022-12-25T17:46:24.566Z,10.53
2022-12-25T17:51:28.250Z,10.51
2022-12-25T17:56:30.441Z,10.39
2022-12-25T18:01:32.989Z,10.41
2022-12-25T18:06:36.311Z,10.21
2022-12-25T18:11:43.426Z,10.12
2022-12-25T18:16:46.328Z,10.31
2022-12-25T18:21:48.754Z,10.40
2022-12-25T18:26:51.025Z,10.42
2022-12-25T18:31:53.510Z,10.48
2022-12-25T18:37:03.263Z,10.30
2022-12-25T18:42:23.763Z,10.42
2022-12-25T18:47:28.415Z,9.96
2022-12-25T18:52:47.359Z,10.00
2022-12-25T18:57:52.393Z,10.16
2022-12-25T19:02:59.436Z,10.13
2022-12-25T19:08:01.804Z,10.06
2022-12-25T19:13:03.917Z,9.95
2022-12-25T19:18:05.902Z,9.81
2022-12-25T19:23:09.072Z,9.60
2022-12-25T19:28:11.310Z,9.67
2022-12-25T19:33:18.010Z,9.65
2022-12-25T19:38:21.454Z,9.81
2022-12-25T19:43:23.403Z,9.70
2022-12-25T19:48:25.830Z,9.76
2022-12-25T19:53:30.996Z,9.92
2022-12-25T19:58:34.078Z,9.92
2022-12-25T20:03:45.553Z,9.92
2022-12-25T20:08:49.992Z,9.84
2022-12-25T20:13:52.374Z,9.95
2022-12-25T20:18:56.130Z,9.86
2022-12-25T20:23:59.685Z,9.89
2022-12-25T20:29:02.205Z,9.88
2022-12-25T20:34:07.545Z,9.76
2022-12-25T20:39:11.536Z,9.65
2022-12-25T20:44:13.431Z,9.40
2022-12-25T20:49:15.261Z,9.57
2022-12-25T20:54:17.189Z,9.30
2022-12-25T20:59:19.081Z,9.30
2022-12-25T21:04:20.931Z,9.10
2022-12-25T21:09:22.810Z,8.96
2022-12-25T21:14:26.190Z,8.92
2022-12-25T21:19:28.141Z,8.88
2022-12-25T21:24:30.117Z,9.02
2022-12-25T21:29:32.674Z,9.11
2022-12-25T21:34:34.702Z,8.91
2022-12-25T21:39:36.592Z,9.02
2022-12-25T21:44:38.457Z,9.03
2022-12-25T21:49:58.819Z,9.14
2022-12-25T21:55:00.653Z,9.26
2022-12-25T22:00:02.497Z,9.06
2022-12-25T22:05:04.884Z,8.82
2022-12-25T22:10:06.882Z,8.90
2022-12-25T22:15:10.543Z,8.95
2022-12-25T22:20:34.983Z,9.19
2022-12-25T22:25:36.815Z,9.02
2022-12-25T22:30:40.024Z,9.01
2022-12-25T22:35:41.941Z,8.92
2022-12-25T22:40:43.791Z,8.62
2022-12-25T22:45:45.667Z,9.15
2022-12-25T22:50:47.579Z,8.95
2022-12-25T22:55:49.749Z,9.06
2022-12-25T23:00:51.656Z,8.67
2022-12-25T23:05:55.316Z,8.73
2022-12-25T23:11:01.298Z,8.59
2022-12-25T23:16:03.546Z,8.43
2022-12-25T23:21:23.941Z,8.37
2022-12-25T23:26:25.805Z,8.35
2022-12-25T23:31:34.483Z,8.22
2022-12-25T23:36:36.589Z,8.33
2022-12-25T23:41:43.260Z,8.48
2022-12-25T23:46:53.253Z,8.51
2022-12-25T23:51:56.206Z,8.46
2022-12-25T23:56:58.485Z,8.55
